createdAt,value
2019-01-12T00:01:44.384Z,27.52
2019-01-12T00:04:24.457Z,26.25
2019-01-12T00:07:04.521Z,27.27
2019-01-12T00:09:44.698Z,29.57
2019-01-12T00:12:24.547Z,31.20
2019-01-12T00:15:04.530Z,28.30
2019-01-12T00:17:44.574Z,24.85
2019-01-12T00:20:24.710Z,25.40
2019-01-12T00:23:04.554Z,26.02
2019-01-12T00:25:45.157Z,25.37
2019-01-12T00:28:24.874Z,29.32
2019-01-12T00:31:04.941Z,33.78
2019-01-12T00:33:44.980Z,30.10
2019-01-12T00:36:25.064Z,28.32
2019-01-12T00:39:05.472Z,28.57
2019-01-12T00:41:45.388Z,26.27
2019-01-12T00:44:25.330Z,27.35
2019-01-12T00:47:05.586Z,27.22
2019-01-12T00:49:45.632Z,26.10
2019-01-12T00:52:25.866Z,29.10
2019-01-12T00:55:06.028Z,29.15
2019-01-12T00:57:46.036Z,26.87
2019-01-12T01:00:26.311Z,25.77
2019-01-12T01:03:06.788Z,27.45
2019-01-12T01:05:46.370Z,27.15
2019-01-12T01:08:26.358Z,23.45
2019-01-12T01:11:06.485Z,26.60
2019-01-12T01:13:46.589Z,25.97
2019-01-12T01:16:26.648Z,22.22
2019-01-12T01:19:06.765Z,26.45
2019-01-12T01:21:47.015Z,22.75
2019-01-12T01:24:26.843Z,18.75
2019-01-12T01:27:06.804Z,22.15
2019-01-12T01:29:46.878Z,24.27
2019-01-12T01:32:26.898Z,21.12
2019-01-12T01:35:07.015Z,22.50
2019-01-12T01:37:46.993Z,23.90
2019-01-12T01:40:27.394Z,19.10
2019-01-12T01:43:07.592Z,21.07
2019-01-12T01:45:47.746Z,21.48
2019-01-12T01:48:27.812Z,20.37
2019-01-12T01:51:07.993Z,19.77
2019-01-12T01:53:47.981Z,19.77
2019-01-12T01:56:28.124Z,21.70
2019-01-12T01:59:09.244Z,20.17
2019-01-12T02:01:49.138Z,21.45
2019-01-12T02:04:29.140Z,22.93
2019-01-12T02:07:09.182Z,19.85
2019-01-12T02:09:49.393Z,19.10
2019-01-12T02:12:29.740Z,19.92
2019-01-12T02:15:09.525Z,18.52
2019-01-12T02:17:49.686Z,23.52
2019-01-12T02:20:29.695Z,18.10
2019-01-12T02:23:09.750Z,19.48
2019-01-12T02:25:50.006Z,21.20
2019-01-12T02:28:30.088Z,20.55
2019-01-12T02:31:10.201Z,21.48
2019-01-12T02:33:50.000Z,21.10
2019-01-12T02:36:30.112Z,19.05
2019-01-12T02:39:09.893Z,20.20
2019-01-12T02:41:49.964Z,21.55
2019-01-12T02:44:30.317Z,19.15
2019-01-12T02:47:10.207Z,19.67
2019-01-12T02:49:50.594Z,20.62
2019-01-12T02:52:30.610Z,18.02
2019-01-12T02:55:10.208Z,17.00
2019-01-12T02:57:49.981Z,17.82
2019-01-12T03:00:30.297Z,18.27
2019-01-12T03:03:10.288Z,16.85
2019-01-12T03:05:51.900Z,18.50
2019-01-12T03:08:32.284Z,18.62
2019-01-12T03:11:12.368Z,19.62
2019-01-12T03:13:52.794Z,17.50
2019-01-12T03:16:32.734Z,15.40
2019-01-12T03:19:12.861Z,20.00
2019-01-12T03:21:53.434Z,20.82
2019-01-12T03:24:33.305Z,18.00
2019-01-12T03:27:13.479Z,19.37
2019-01-12T03:29:53.815Z,18.07
2019-01-12T03:32:33.868Z,16.20
2019-01-12T03:35:14.740Z,22.27
2019-01-12T03:37:55.069Z,15.45
2019-01-12T03:40:34.653Z,17.92
2019-01-12T03:43:15.416Z,21.50
2019-01-12T03:45:55.508Z,21.77
2019-01-12T03:48:35.739Z,20.82
2019-01-12T03:51:16.292Z,20.20
2019-01-12T03:53:56.035Z,22.25
2019-01-12T03:56:36.046Z,21.15
2019-01-12T03:59:16.680Z,18.65
2019-01-12T04:01:56.452Z,20.65
2019-01-12T04:04:37.993Z,19.65
2019-01-12T04:07:17.747Z,18.12
2019-01-12T04:09:57.836Z,21.87
2019-01-12T04:12:38.632Z,25.57
2019-01-12T04:15:16.728Z,24.30
2019-01-12T04:17:56.456Z,20.20
2019-01-12T04:20:36.546Z,20.60
2019-01-12T04:23:17.014Z,23.45
2019-01-12T04:25:57.056Z,24.30
2019-01-12T04:28:37.217Z,21.02
2019-01-12T04:31:17.255Z,18.85
2019-01-12T04:33:57.563Z,21.23
2019-01-12T04:36:37.381Z,22.62
2019-01-12T04:39:17.525Z,18.90
2019-01-12T04:41:57.628Z,27.48
2019-01-12T04:44:38.708Z,21.07
2019-01-12T04:47:18.852Z,17.42
2019-01-12T04:49:58.677Z,17.05
2019-01-12T04:52:38.781Z,19.27
2019-01-12T04:55:19.028Z,19.87
2019-01-12T04:57:58.706Z,20.88
2019-01-12T05:00:39.092Z,18.20
2019-01-12T05:03:19.027Z,16.90
2019-01-12T05:05:59.236Z,17.25
2019-01-12T05:08:40.048Z,17.50
2019-01-12T05:11:19.882Z,16.75
2019-01-12T05:14:00.096Z,21.80
2019-01-12T05:16:40.150Z,16.42
2019-01-12T05:19:20.393Z,18.52
2019-01-12T05:22:00.261Z,19.62
2019-01-12T05:24:40.488Z,15.48
2019-01-12T05:27:20.272Z,14.40
2019-01-12T05:30:00.615Z,16.73
2019-01-12T05:32:40.644Z,17.62
2019-01-12T05:35:20.598Z,18.10
2019-01-12T05:38:00.802Z,17.25
2019-01-12T05:40:41.490Z,16.62
2019-01-12T05:43:21.986Z,18.30
2019-01-12T05:46:02.020Z,20.32
2019-01-12T05:48:45.860Z,17.30
2019-01-12T05:51:26.511Z,22.27
2019-01-12T05:54:06.511Z,16.85
2019-01-12T05:56:46.535Z,20.43
2019-01-12T05:59:26.971Z,20.55
2019-01-12T06:02:06.766Z,18.50
2019-01-12T06:04:46.975Z,17.48
2019-01-12T06:07:27.446Z,16.65
2019-01-12T06:10:07.270Z,17.27
2019-01-12T06:12:47.803Z,21.82
2019-01-12T06:15:27.794Z,18.52
2019-01-12T06:18:07.904Z,23.02
2019-01-12T06:20:48.022Z,19.73
2019-01-12T06:23:27.770Z,19.45
2019-01-12T06:26:07.985Z,20.88
2019-01-12T06:28:48.160Z,15.45
2019-01-12T06:31:27.878Z,20.40
2019-01-12T06:34:08.402Z,21.15
2019-01-12T06:36:48.048Z,21.30
2019-01-12T06:39:28.354Z,27.80
2019-01-12T06:42:06.509Z,21.45
2019-01-12T06:44:47.030Z,18.32
2019-01-12T06:47:27.480Z,16.87
2019-01-12T06:50:07.170Z,17.75
2019-01-12T06:52:47.363Z,18.07
2019-01-12T06:55:27.408Z,18.32
2019-01-12T06:58:07.889Z,18.00
2019-01-12T07:00:48.182Z,16.25
2019-01-12T07:03:28.024Z,17.48
2019-01-12T07:06:08.163Z,20.32
2019-01-12T07:08:48.288Z,18.25
2019-01-12T07:11:28.349Z,19.90
2019-01-12T07:14:08.623Z,21.50
2019-01-12T07:16:48.559Z,23.10
2019-01-12T07:19:28.680Z,23.52
2019-01-12T07:22:08.810Z,16.65
2019-01-12T07:24:48.900Z,16.15
2019-01-12T07:27:29.354Z,18.73
2019-01-12T07:30:09.271Z,20.10
2019-01-12T07:32:48.969Z,21.30
2019-01-12T07:35:29.201Z,16.30
2019-01-12T07:38:09.279Z,24.37
2019-01-12T07:40:49.522Z,19.75
2019-01-12T07:43:29.634Z,17.70
2019-01-12T07:46:10.076Z,20.08
2019-01-12T07:48:50.103Z,26.10
2019-01-12T07:51:30.458Z,22.45
2019-01-12T07:54:10.235Z,21.20
2019-01-12T07:56:50.508Z,24.95
2019-01-12T07:59:30.611Z,20.35
2019-01-12T08:02:10.850Z,19.80
2019-01-12T08:04:50.836Z,23.87
2019-01-12T08:07:30.781Z,17.77
2019-01-12T08:10:10.803Z,18.37
2019-01-12T08:12:50.961Z,19.75
2019-01-12T08:15:31.134Z,18.67
2019-01-12T08:18:11.226Z,24.75
2019-01-12T08:20:51.542Z,21.23
2019-01-12T08:23:31.416Z,23.45
2019-01-12T08:26:11.684Z,21.57
2019-01-12T08:28:51.408Z,24.95
2019-01-12T08:31:31.671Z,22.50
2019-01-12T08:34:11.767Z,27.10
2019-01-12T08:36:51.882Z,24.07
2019-01-12T08:39:32.660Z,22.50
2019-01-12T08:42:12.336Z,25.05
2019-01-12T08:44:52.576Z,19.07
2019-01-12T08:47:32.824Z,21.30
2019-01-12T08:50:12.775Z,22.15
2019-01-12T08:52:53.008Z,25.32
2019-01-12T08:55:33.052Z,30.43
2019-01-12T08:58:13.600Z,37.28
2019-01-12T09:00:53.918Z,34.30
2019-01-12T09:03:33.994Z,32.80
2019-01-12T09:06:14.174Z,31.10
2019-01-12T09:08:54.656Z,31.50
2019-01-12T09:11:34.735Z,28.57
2019-01-12T09:14:15.155Z,27.98
2019-01-12T09:16:55.180Z,27.60
2019-01-12T09:19:35.599Z,27.73
2019-01-12T09:22:15.244Z,24.67
2019-01-12T09:24:55.481Z,30.72
2019-01-12T09:27:35.429Z,25.15
2019-01-12T09:30:15.826Z,28.90
2019-01-12T09:32:56.088Z,24.67
2019-01-12T09:35:36.077Z,25.80
2019-01-12T09:38:16.152Z,24.07
2019-01-12T09:40:56.364Z,26.95
2019-01-12T09:43:36.508Z,29.10
2019-01-12T09:46:16.522Z,28.27
2019-01-12T09:48:56.677Z,29.82
2019-01-12T09:51:36.789Z,29.90
2019-01-12T09:54:16.799Z,28.20
2019-01-12T09:56:57.106Z,27.77
2019-01-12T09:59:37.060Z,29.15
2019-01-12T10:02:17.043Z,29.48
2019-01-12T10:04:57.170Z,25.55
2019-01-12T10:07:38.149Z,25.70
2019-01-12T10:10:19.721Z,30.12
2019-01-12T10:13:00.673Z,24.65
2019-01-12T10:15:40.484Z,27.15
2019-01-12T10:18:24.242Z,34.85
2019-01-12T10:21:04.665Z,27.25
2019-01-12T10:23:43.016Z,26.33
2019-01-12T10:26:31.043Z,20.68
2019-01-12T10:29:11.932Z,19.75
2019-01-12T10:31:52.678Z,20.82
2019-01-12T10:34:32.596Z,20.40
2019-01-12T10:37:12.737Z,22.42
2019-01-12T10:39:52.648Z,22.20
2019-01-12T10:42:32.764Z,19.10
2019-01-12T10:45:13.002Z,14.50
2019-01-12T10:47:52.968Z,15.70
2019-01-12T10:50:33.635Z,20.30
2019-01-12T10:53:13.142Z,18.30
2019-01-12T10:55:53.692Z,16.65
2019-01-12T10:58:34.506Z,15.63
2019-01-12T11:01:14.749Z,14.85
2019-01-12T11:03:54.788Z,14.38
2019-01-12T11:06:35.043Z,12.25
2019-01-12T11:09:15.156Z,14.98
2019-01-12T11:11:55.203Z,18.12
2019-01-12T11:14:35.474Z,16.30
2019-01-12T11:17:15.547Z,11.48
2019-01-12T11:19:55.783Z,14.63
2019-01-12T11:22:35.582Z,14.58
2019-01-12T11:25:15.989Z,9.73
2019-01-12T11:27:56.056Z,11.85
2019-01-12T11:30:37.076Z,14.70
2019-01-12T11:33:17.202Z,12.28
2019-01-12T11:35:57.309Z,12.07
2019-01-12T11:38:37.289Z,12.95
2019-01-12T11:41:17.600Z,14.78
2019-01-12T11:43:57.420Z,12.95
2019-01-12T11:46:37.318Z,12.18
2019-01-12T11:49:17.712Z,14.00
2019-01-12T11:51:58.028Z,14.10
2019-01-12T11:54:38.768Z,15.15
2019-01-12T11:57:19.465Z,15.70
2019-01-12T11:59:59.541Z,12.40
2019-01-12T12:02:40.128Z,14.53
2019-01-12T12:05:20.510Z,15.78
2019-01-12T12:08:00.275Z,14.95
2019-01-12T12:10:40.539Z,16.12
2019-01-12T12:13:21.072Z,12.07
2019-01-12T12:16:01.544Z,16.52
2019-01-12T12:18:41.814Z,18.82
2019-01-12T12:21:21.885Z,14.05
2019-01-12T12:24:02.356Z,21.73
2019-01-12T12:26:42.202Z,17.67
2019-01-12T12:29:22.659Z,15.45
2019-01-12T12:32:02.505Z,14.58
2019-01-12T12:34:42.694Z,14.40
2019-01-12T12:37:22.705Z,17.27
2019-01-12T12:40:03.465Z,17.98
2019-01-12T12:42:43.371Z,22.32
2019-01-12T12:45:23.487Z,27.40
2019-01-12T12:48:03.662Z,21.15
2019-01-12T12:50:43.754Z,19.85
2019-01-12T12:53:23.714Z,19.42
2019-01-12T12:56:03.960Z,18.37
2019-01-12T12:58:44.159Z,20.92
2019-01-12T13:01:24.235Z,19.48
2019-01-12T13:04:04.409Z,18.27
2019-01-12T13:06:44.606Z,20.23
2019-01-12T13:09:25.489Z,20.20
2019-01-12T13:12:05.452Z,22.90
2019-01-12T13:14:45.322Z,20.10
2019-01-12T13:17:25.675Z,24.00
2019-01-12T13:20:05.524Z,19.25
2019-01-12T13:22:45.571Z,22.40
2019-01-12T13:25:25.377Z,24.55
2019-01-12T13:28:05.548Z,22.67
2019-01-12T13:30:46.247Z,20.27
2019-01-12T13:33:24.393Z,25.92
2019-01-12T13:36:12.340Z,22.27
2019-01-12T13:38:51.847Z,20.30
2019-01-12T13:41:32.188Z,24.92
2019-01-12T13:44:12.047Z,25.90
2019-01-12T13:46:52.490Z,22.52
2019-01-12T13:49:32.170Z,23.12
2019-01-12T13:52:12.276Z,24.98
2019-01-12T13:54:53.005Z,29.85
2019-01-12T13:57:33.389Z,26.23
2019-01-12T14:00:13.579Z,21.60
2019-01-12T14:02:53.830Z,22.55
2019-01-12T14:05:34.038Z,27.50
2019-01-12T14:08:14.538Z,19.70
2019-01-12T14:10:54.503Z,22.13
2019-01-12T14:13:34.500Z,20.48
2019-01-12T14:16:18.199Z,19.67
2019-01-12T14:18:58.573Z,18.55
2019-01-12T14:21:38.547Z,21.73
2019-01-12T14:24:18.544Z,24.00
2019-01-12T14:26:59.104Z,21.30
2019-01-12T14:29:39.804Z,18.12
2019-01-12T14:32:19.813Z,17.00
2019-01-12T14:35:00.262Z,15.93
2019-01-12T14:37:39.825Z,14.98
2019-01-12T14:40:20.003Z,20.12
2019-01-12T14:43:00.219Z,14.15
2019-01-12T14:45:40.625Z,16.37
2019-01-12T14:48:20.429Z,15.70
2019-01-12T14:51:00.177Z,13.65
2019-01-12T14:53:40.451Z,15.72
2019-01-12T14:56:20.386Z,14.25
2019-01-12T14:59:00.700Z,12.30
2019-01-12T15:01:38.831Z,13.75
2019-01-12T15:04:19.375Z,15.50
2019-01-12T15:06:59.139Z,13.22
2019-01-12T15:09:39.016Z,15.75
2019-01-12T15:12:19.457Z,17.00
2019-01-12T15:14:59.344Z,14.33
2019-01-12T15:17:39.295Z,12.40
2019-01-12T15:20:19.828Z,12.80
2019-01-12T15:22:59.866Z,12.30
2019-01-12T15:25:39.833Z,13.43
2019-01-12T15:28:19.924Z,11.28
2019-01-12T15:31:00.426Z,13.25
2019-01-12T15:33:40.513Z,13.13
2019-01-12T15:36:20.310Z,10.10
2019-01-12T15:39:01.778Z,13.98
2019-01-12T15:41:44.134Z,15.93
2019-01-12T15:44:24.560Z,13.30
2019-01-12T15:47:04.518Z,11.55
2019-01-12T15:49:44.568Z,15.25
2019-01-12T15:52:24.584Z,14.53
2019-01-12T15:55:04.868Z,12.60
2019-01-12T15:57:45.236Z,13.20
2019-01-12T16:00:25.346Z,14.35
2019-01-12T16:03:05.355Z,13.78
2019-01-12T16:05:45.964Z,17.87
2019-01-12T16:08:25.828Z,19.42
2019-01-12T16:11:05.846Z,13.88
2019-01-12T16:13:46.132Z,17.92
2019-01-12T16:16:25.786Z,18.20
2019-01-12T16:19:05.966Z,17.82
2019-01-12T16:21:46.019Z,15.90
2019-01-12T16:24:27.989Z,19.52
2019-01-12T16:27:08.368Z,19.10
2019-01-12T16:29:48.258Z,21.33
2019-01-12T16:32:28.295Z,17.07
2019-01-12T16:35:08.488Z,14.70
2019-01-12T16:37:48.549Z,15.32
2019-01-12T16:40:28.804Z,14.80
2019-01-12T16:43:09.022Z,18.65
2019-01-12T16:45:49.057Z,16.37
2019-01-12T16:48:29.460Z,14.23
2019-01-12T16:51:09.740Z,13.93
2019-01-12T16:53:50.418Z,16.97
2019-01-12T16:56:30.716Z,15.60
2019-01-12T16:59:10.523Z,13.98
2019-01-12T17:01:50.603Z,15.55
2019-01-12T17:04:30.640Z,14.60
2019-01-12T17:07:10.964Z,14.47
2019-01-12T17:09:51.000Z,15.50
2019-01-12T17:12:31.358Z,13.10
2019-01-12T17:15:11.551Z,11.68
2019-01-12T17:17:51.944Z,11.90
2019-01-12T17:20:35.097Z,10.53
2019-01-12T17:23:15.214Z,12.55
2019-01-12T17:25:55.274Z,11.53
2019-01-12T17:31:41.867Z,16.15
2019-01-12T17:34:21.933Z,12.25
2019-01-12T17:37:02.054Z,10.93
2019-01-12T17:39:42.071Z,10.72
2019-01-12T17:42:22.172Z,12.07
2019-01-12T17:45:02.710Z,12.70
2019-01-12T17:47:43.186Z,11.12
2019-01-12T17:53:03.500Z,12.37
2019-01-12T17:55:43.653Z,13.78
2019-01-12T17:58:23.980Z,11.78
2019-01-12T18:01:04.763Z,12.25
2019-01-12T18:03:45.145Z,13.22
2019-01-12T18:06:25.784Z,9.13
2019-01-12T18:09:06.544Z,15.83
2019-01-12T18:11:46.170Z,14.10
2019-01-12T18:14:26.425Z,11.88
2019-01-12T18:17:06.871Z,14.53
2019-01-12T18:19:46.567Z,12.35
2019-01-12T18:22:26.586Z,13.43
2019-01-12T18:25:06.643Z,14.90
2019-01-12T18:27:46.602Z,13.18
2019-01-12T18:30:26.940Z,12.13
2019-01-12T18:33:06.973Z,12.35
2019-01-12T18:35:47.463Z,12.58
2019-01-12T18:38:27.246Z,11.45
2019-01-12T18:41:07.616Z,12.80
2019-01-12T18:43:47.548Z,13.95
2019-01-12T18:46:27.552Z,13.90
2019-01-12T18:49:07.745Z,18.95
2019-01-12T18:51:47.622Z,14.53
2019-01-12T18:54:27.969Z,13.28
2019-01-12T18:57:08.321Z,14.73
2019-01-12T18:59:48.343Z,14.15
2019-01-12T19:02:28.492Z,17.32
2019-01-12T19:05:08.466Z,14.38
2019-01-12T19:07:48.752Z,20.60
2019-01-12T19:10:28.516Z,16.87
2019-01-12T19:13:08.544Z,20.55
2019-01-12T19:15:48.621Z,19.40
2019-01-12T19:18:28.733Z,15.98
2019-01-12T19:21:09.013Z,16.95
2019-01-12T19:23:48.896Z,13.78
2019-01-12T19:26:29.299Z,15.63
2019-01-12T19:29:09.136Z,17.65
2019-01-12T19:31:49.067Z,13.45
2019-01-12T19:34:29.599Z,19.98
2019-01-12T19:37:09.807Z,12.70
2019-01-12T19:39:50.595Z,12.15
2019-01-12T19:42:30.547Z,14.73
2019-01-12T19:45:10.492Z,24.72
2019-01-12T19:47:50.429Z,13.65
2019-01-12T19:50:30.506Z,11.70
2019-01-12T19:53:10.824Z,12.03
2019-01-12T19:55:51.248Z,11.00
2019-01-12T19:58:30.926Z,11.83
2019-01-12T20:01:11.313Z,10.35
2019-01-12T20:03:51.144Z,9.63
2019-01-12T20:06:31.673Z,8.25
2019-01-12T20:09:11.431Z,6.70
2019-01-12T20:11:51.589Z,6.50
2019-01-12T20:14:31.807Z,6.10
2019-01-12T20:17:11.547Z,7.50
2019-01-12T20:19:51.926Z,6.33
2019-01-12T20:22:31.673Z,4.60
2019-01-12T20:25:11.862Z,8.95
2019-01-12T20:27:51.830Z,5.42
2019-01-12T20:30:31.636Z,10.68
2019-01-12T20:33:12.050Z,10.90
2019-01-12T20:39:14.461Z,6.20
2019-01-12T20:41:54.812Z,6.85
2019-01-12T20:44:34.641Z,5.78
2019-01-12T20:47:14.895Z,6.67
2019-01-12T20:49:55.122Z,8.63
2019-01-12T20:52:35.006Z,12.73
2019-01-12T20:55:15.209Z,7.20
2019-01-12T20:57:55.373Z,7.80
2019-01-12T21:00:35.332Z,9.48
2019-01-12T21:03:15.797Z,8.63
2019-01-12T21:05:55.677Z,8.13
2019-01-12T21:08:35.823Z,8.23
2019-01-12T21:11:16.004Z,9.10
2019-01-12T21:13:55.756Z,7.80
2019-01-12T21:16:35.840Z,7.62
2019-01-12T21:19:16.186Z,6.97
2019-01-12T21:21:55.858Z,10.32
2019-01-12T21:24:36.165Z,7.60
2019-01-12T21:27:16.062Z,9.93
2019-01-12T21:29:56.096Z,6.78
2019-01-12T21:32:36.289Z,6.60
2019-01-12T21:35:17.270Z,6.03
2019-01-12T21:37:57.164Z,5.55
2019-01-12T21:40:37.732Z,6.05
2019-01-12T21:43:17.767Z,5.85
2019-01-12T21:45:58.034Z,5.75
2019-01-12T21:48:38.307Z,4.85
2019-01-12T21:51:18.532Z,7.40
2019-01-12T21:53:58.953Z,5.95
2019-01-12T21:56:39.560Z,5.17
2019-01-12T21:59:19.522Z,6.28
2019-01-12T22:01:59.518Z,5.83
2019-01-12T22:04:39.484Z,5.60
2019-01-12T22:07:19.852Z,6.30
2019-01-12T22:09:59.882Z,4.67
2019-01-12T22:12:39.871Z,4.75
2019-01-12T22:15:20.167Z,4.40
2019-01-12T22:18:03.363Z,4.65
2019-01-12T22:20:43.320Z,4.75
2019-01-12T22:23:23.245Z,4.47
2019-01-12T22:26:03.304Z,3.98
2019-01-12T22:28:43.515Z,4.15
2019-01-12T22:31:23.646Z,4.80
2019-01-12T22:34:04.041Z,3.95
2019-01-12T22:36:44.039Z,3.45
2019-01-12T22:39:24.360Z,3.95
2019-01-12T22:42:04.036Z,3.55
2019-01-12T22:44:44.250Z,2.67
2019-01-12T22:47:24.338Z,4.47
2019-01-12T22:50:04.417Z,3.30
2019-01-12T22:52:44.510Z,5.65
2019-01-12T22:55:26.737Z,3.90
2019-01-12T22:58:06.705Z,3.08
2019-01-12T23:00:48.174Z,2.80
2019-01-12T23:03:28.816Z,3.75
2019-01-12T23:06:08.967Z,4.33
2019-01-12T23:08:49.140Z,3.00
2019-01-12T23:11:29.484Z,3.50
2019-01-12T23:14:09.823Z,2.40
2019-01-12T23:16:49.476Z,2.67
2019-01-12T23:19:29.524Z,2.92
2019-01-12T23:22:09.686Z,2.40
2019-01-12T23:24:49.408Z,2.62
2019-01-12T23:27:29.910Z,3.25
2019-01-12T23:30:10.384Z,2.72
2019-01-12T23:32:50.345Z,2.90
2019-01-12T23:35:30.574Z,4.05
2019-01-12T23:38:10.399Z,2.50
2019-01-12T23:40:50.819Z,3.30
2019-01-12T23:43:30.650Z,2.30
2019-01-12T23:46:10.943Z,1.95
2019-01-12T23:48:51.140Z,2.85
2019-01-12T23:51:31.391Z,2.35
2019-01-12T23:54:11.386Z,2.98
2019-01-12T23:56:51.657Z,2.62
2019-01-12T23:59:31.938Z,2.40
